Time;durP1;ratioP1;P1;durP2;ratioP2;P2;SDS_P1;SDS_P2;PMS_P1;PMS_P2;Temp;Humidity;BMP_temperature;BMP_pressure;BME280_temperature;BME280_humidity;BME280_pressure;Samples;Min_cycle;Max_cycle;Signal;HPM_P1;HPM_P2
2021/06/02 00:01:56;;;;;;;1.82;1.07;;;;;;;11.39;56.92;100436.58;1646350;86;21298;-82
2021/06/02 00:04:26;;;;;;;1.30;0.73;;;;;;;11.39;57.03;100437.09;1649994;86;22312;-80
2021/06/02 00:08:24;;;;;;;2.33;0.57;;;;;;;11.41;57.22;100433.20;1777189;79;22272;-81
2021/06/02 00:10:53;;;;;;;3.40;1.30;;;;;;;11.43;57.09;100432.53;1695649;83;21129;-80
2021/06/02 00:13:20;;;;;;;2.43;0.53;;;;;;;11.40;57.07;100435.57;1660744;84;20985;-82
2021/06/02 00:15:48;;;;;;;1.40;1.20;;;;;;;11.36;57.11;100428.97;1658628;84;21056;-80
2021/06/02 00:18:17;;;;;;;4.43;1.30;;;;;;;11.34;57.26;100428.34;1656221;85;21148;-80
2021/06/02 00:20:44;;;;;;;1.53;1.10;;;;;;;11.32;57.11;100427.70;1662350;85;21524;-82
2021/06/02 00:23:13;;;;;;;1.97;0.60;;;;;;;11.32;57.11;100432.19;1646962;85;21559;-81
2021/06/02 00:25:38;;;;;;;5.47;1.60;;;;;;;11.32;57.06;100430.86;1640735;86;21042;-81
2021/06/02 00:28:06;;;;;;;2.53;0.73;;;;;;;11.32;56.98;100423.70;1658557;85;21084;-82
2021/06/02 00:30:34;;;;;;;2.00;1.10;;;;;;;11.32;57.27;100422.37;1661468;84;21060;-80
2021/06/02 00:33:01;;;;;;;0.90;0.90;;;;;;;11.31;57.28;100426.04;1651401;85;21145;-80
2021/06/02 00:35:27;;;;;;;9.93;1.33;;;;;;;11.32;57.16;100421.03;1674392;83;21585;-80
2021/06/02 00:37:54;;;;;;;3.47;1.12;;;;;;;11.30;57.20;100415.03;1665029;86;21076;-81
2021/06/02 00:40:44;;;;;;;1.00;0.90;;;;;;;11.31;57.08;100419.37;1678495;84;21045;-82
2021/06/02 00:43:10;;;;;;;3.33;0.80;;;;;;;11.31;57.08;100415.37;1671018;85;21112;-81
2021/06/02 00:45:37;;;;;;;2.77;1.47;;;;;;;11.30;57.09;100413.70;1662386;83;21029;-80
2021/06/02 00:48:05;;;;;;;3.03;1.80;;;;;;;11.32;57.01;100411.69;1687302;83;21045;-81
2021/06/02 00:50:33;;;;;;;2.93;0.90;;;;;;;11.34;56.97;100416.81;1677426;83;21093;-80
2021/06/02 00:53:01;;;;;;;1.70;1.43;;;;;;;11.34;56.84;100413.66;1669007;84;21081;-82
2021/06/02 00:55:27;;;;;;;2.20;1.50;;;;;;;11.35;56.84;100410.48;1667531;84;21651;-80
2021/06/02 00:57:55;;;;;;;3.90;1.27;;;;;;;11.37;56.89;100411.11;1667795;84;21148;-80
2021/06/02 01:00:24;;;;;;;3.70;1.53;;;;;;;11.35;56.85;100412.63;1669848;84;21064;-81
2021/06/02 01:02:53;;;;;;;1.93;1.13;;;;;;;11.34;56.96;100406.98;1646217;86;21570;-82
2021/06/02 01:05:23;;;;;;;3.40;1.23;;;;;;;11.33;56.92;100403.98;1647570;86;21117;-80
2021/06/02 01:07:52;;;;;;;2.63;1.00;;;;;;;11.32;56.92;100401.02;1637854;86;21066;-81
2021/06/02 01:10:19;;;;;;;6.43;1.10;;;;;;;11.29;57.13;100404.88;1622976;87;21117;-79
2021/06/02 01:12:49;;;;;;;5.30;0.93;;;;;;;11.27;57.13;100409.58;1608690;87;21131;-81
2021/06/02 01:15:20;;;;;;;4.53;1.30;;;;;;;11.26;57.12;100404.43;1635497;86;21639;-80
2021/06/02 01:17:47;;;;;;;2.07;1.17;;;;;;;11.25;57.54;100404.13;1623841;87;21031;-80
2021/06/02 01:20:16;;;;;;;4.20;0.83;;;;;;;11.21;57.36;100399.68;1635072;86;21364;-81
2021/06/02 01:22:43;;;;;;;1.20;1.10;;;;;;;11.19;57.35;100401.72;1652668;83;21068;-80
2021/06/02 01:25:18;;;;;;;1.43;0.90;;;;;;;11.18;57.47;100404.57;1693351;83;21371;-81
2021/06/02 01:27:48;;;;;;;2.97;0.87;;;;;;;11.16;57.45;100399.42;1692563;83;21046;-81
2021/06/02 01:30:19;;;;;;;1.50;0.83;;;;;;;11.14;57.74;100397.97;1693673;83;21129;-80
2021/06/02 01:33:36;;;;;;;3.27;1.17;;;;;;;11.11;57.77;100399.16;1695105;83;21110;-80
2021/06/02 01:36:13;;;;;;;;;;;;;;;11.08;58.04;100412.89;1689380;83;21154;-80
2021/06/02 01:39:31;;;;;;;1.43;0.90;;;;;;;10.96;58.44;100409.05;1687818;83;20194;-80
2021/06/02 01:42:23;;;;;;;0.90;0.87;;;;;;;10.87;58.55;100410.52;1667300;85;21671;-81
2021/06/02 01:45:26;;;;;;;1.47;1.10;;;;;;;10.84;58.90;100410.88;1637953;84;21175;-82
2021/06/02 01:48:34;;;;;;;1.40;1.10;;;;;;;10.79;59.29;100409.28;1589900;89;21148;-81
2021/06/02 01:51:50;;;;;;;3.03;1.77;;;;;;;10.79;59.10;100409.80;1650771;85;21616;-82
2021/06/02 01:54:52;;;;;;;3.90;0.90;;;;;;;10.77;59.21;100411.31;1650563;86;21685;-82
2021/06/02 01:57:54;;;;;;;2.80;0.73;;;;;;;10.78;59.15;100412.98;1656728;86;21089;-76
2021/06/02 02:00:56;;;;;;;2.10;0.97;;;;;;;10.73;59.57;100414.04;1663982;85;21036;-76
2021/06/02 02:03:43;;;;;;;3.93;1.30;;;;;;;10.73;59.52;100411.38;1679186;84;21084;-79
2021/06/02 02:06:45;;;;;;;1.35;0.82;;;;;;;10.77;59.71;100408.64;1637327;86;21238;-76
2021/06/02 02:09:36;;;;;;;3.20;0.77;;;;;;;10.84;59.27;100414.89;1639599;86;21094;-78
2021/06/02 02:12:27;;;;;;;3.43;1.13;;;;;;;10.83;59.38;100426.58;1619372;83;21035;-76
2021/06/02 02:15:25;;;;;;;6.63;0.83;;;;;;;10.83;59.56;100420.40;1602601;87;21157;-79
2021/06/02 02:18:34;;;;;;;1.40;0.78;;;;;;;10.84;59.40;100420.73;1596439;88;21089;-80
2021/06/02 02:21:41;;;;;;;1.40;1.10;;;;;;;10.93;59.41;100422.79;1598487;88;21115;-79
2021/06/02 02:24:15;;;;;;;2.43;1.00;;;;;;;11.00;58.94;100420.51;1618900;86;21168;-80
2021/06/02 02:26:58;;;;;;;2.58;1.35;;;;;;;11.01;58.91;100410.66;1623876;87;21171;-79
2021/06/02 02:29:42;;;;;;;1.47;0.80;;;;;;;11.00;58.84;100424.51;1576848;88;21101;-81
2021/06/02 02:32:42;;;;;;;2.37;1.20;;;;;;;10.98;58.85;100427.88;1620292;87;21087;-82
2021/06/02 02:35:48;;;;;;;2.50;1.63;;;;;;;10.95;58.94;100430.09;1608616;86;21062;-81
2021/06/02 02:38:56;;;;;;;4.40;1.10;;;;;;;10.93;59.11;100430.27;1600013;88;21182;-80
2021/06/02 02:41:46;;;;;;;1.32;0.65;;;;;;;10.89;59.55;100429.83;1646064;86;21118;-81
2021/06/02 02:44:27;;;;;;;5.20;1.27;;;;;;;10.82;59.79;100432.91;1642411;83;21168;-81
2021/06/02 02:47:02;;;;;;;1.37;0.70;;;;;;;10.83;59.73;100429.73;1646809;86;21049;-82
2021/06/02 02:49:55;;;;;;;3.73;0.93;;;;;;;10.88;59.93;100430.00;1626431;86;21143;-82
2021/06/02 02:52:45;;;;;;;1.57;0.70;;;;;;;11.01;59.44;100432.00;1638275;86;21136;-83
2021/06/02 02:55:28;;;;;;;2.30;0.97;;;;;;;11.01;59.44;100443.48;1642675;85;21079;-82
2021/06/02 02:58:24;;;;;;;2.30;1.10;;;;;;;10.99;59.41;100443.36;1654521;85;21119;-83
2021/06/02 03:01:08;;;;;;;4.17;1.20;;;;;;;10.98;59.33;100447.88;1650413;85;21065;-81
2021/06/02 03:03:59;;;;;;;3.37;1.10;;;;;;;10.98;59.39;100445.21;1644028;86;21148;-82
2021/06/02 03:06:41;;;;;;;3.27;1.23;;;;;;;10.98;59.53;100441.70;1627572;87;21083;-77
2021/06/02 03:09:42;;;;;;;1.47;0.90;;;;;;;10.97;59.58;100450.73;1639566;85;21641;-81
2021/06/02 03:12:37;;;;;;;2.87;1.00;;;;;;;10.98;59.42;100447.88;1642990;86;21251;-81
2021/06/02 03:15:41;;;;;;;3.20;1.10;;;;;;;10.98;59.34;100450.55;1653900;86;21256;-80
2021/06/02 03:18:29;;;;;;;2.63;1.00;;;;;;;11.01;59.69;100450.15;1641206;85;21071;-83
2021/06/02 03:21:32;;;;;;;2.43;1.20;;;;;;;11.00;59.40;100445.84;1659312;85;21156;-82
2021/06/02 03:24:32;;;;;;;1.70;0.87;;;;;;;11.00;59.78;100447.66;1654056;84;21043;-81
2021/06/02 03:27:12;;;;;;;1.80;1.10;;;;;;;10.99;59.77;100456.70;1661039;85;21046;-81
2021/06/02 03:30:11;;;;;;;4.30;0.93;;;;;;;10.99;59.77;100457.52;1656690;85;21020;-83
2021/06/02 03:33:03;;;;;;;3.80;1.13;;;;;;;11.05;59.64;100455.94;1655264;85;21067;-80
2021/06/02 03:35:49;;;;;;;9.87;1.23;;;;;;;11.16;59.46;100446.11;1655618;85;21146;-85
2021/06/02 03:38:42;;;;;;;1.27;0.90;;;;;;;11.22;59.25;100460.53;1655764;85;21138;-85
2021/06/02 03:41:48;;;;;;;1.17;0.57;;;;;;;11.21;59.34;100452.23;1655199;85;21308;-83
2021/06/02 03:44:32;;;;;;;3.03;1.03;;;;;;;11.21;59.30;100459.71;1650480;85;21137;-86
2021/06/02 03:47:30;;;;;;;1.30;1.10;;;;;;;11.22;59.50;100453.86;1624052;86;21112;-84
2021/06/02 03:50:26;;;;;;;2.40;1.02;;;;;;;11.24;59.29;100457.98;1627615;87;21089;-85
2021/06/02 03:53:34;;;;;;;4.17;1.33;;;;;;;11.23;59.67;100454.19;1628913;87;21547;-83
2021/06/02 03:56:21;;;;;;;2.17;1.17;;;;;;;11.23;59.43;100460.86;1640733;86;21616;-85
2021/06/02 03:59:04;;;;;;;6.37;0.70;;;;;;;11.19;59.89;100451.08;1659115;85;21027;-85
2021/06/02 04:01:54;;;;;;;3.90;0.83;;;;;;;11.21;59.97;100440.22;1659333;85;21016;-85
2021/06/02 04:04:35;;;;;;;6.60;0.93;;;;;;;11.25;59.82;100452.16;1655598;85;21367;-87
2021/06/02 04:07:12;;;;;;;0.60;0.60;;;;;;;11.28;59.61;100435.75;1659116;85;21050;-87
2021/06/02 04:10:05;;;;;;;1.40;1.07;;;;;;;11.30;59.74;100447.05;1622949;86;21572;-85
2021/06/02 04:12:55;;;;;;;1.47;0.60;;;;;;;11.33;59.54;100446.69;1640845;84;21069;-86
2021/06/02 04:15:23;;;;;;;1.30;0.80;;;;;;;11.34;59.18;100447.02;1628496;86;21104;-87
2021/06/02 04:17:51;;;;;;;2.73;1.10;;;;;;;11.38;58.97;100442.12;1630019;86;21119;-86
2021/06/02 04:20:20;;;;;;;1.70;1.07;;;;;;;11.41;59.11;100445.73;1630989;87;21085;-84
2021/06/02 04:22:49;;;;;;;4.30;0.97;;;;;;;11.46;59.21;100441.47;1640853;85;20980;-85
2021/06/02 04:25:19;;;;;;;3.73;1.20;;;;;;;11.54;59.20;100446.36;1660833;85;21110;-84
2021/06/02 04:27:47;;;;;;;8.13;1.20;;;;;;;11.61;58.39;100441.91;1659078;85;21020;-85
2021/06/02 04:30:18;;;;;;;3.63;0.80;;;;;;;11.67;58.81;100441.14;1658488;85;21066;-85
2021/06/02 04:32:48;;;;;;;2.60;0.53;;;;;;;11.73;58.69;100443.03;1658113;85;21114;-86
2021/06/02 04:35:19;;;;;;;2.13;1.40;;;;;;;11.76;57.93;100442.66;1632446;86;21124;-84
2021/06/02 04:37:46;;;;;;;4.10;0.80;;;;;;;11.80;57.70;100439.91;1630516;86;21401;-85
2021/06/02 04:40:13;;;;;;;5.40;1.17;;;;;;;11.84;58.10;100430.48;1631159;86;21076;-86
2021/06/02 04:42:41;;;;;;;1.20;0.70;;;;;;;11.90;57.61;100432.09;1596822;89;21542;-86
2021/06/02 04:45:14;;;;;;;1.87;0.70;;;;;;;11.96;57.92;100439.32;1590626;88;21094;-84
2021/06/02 04:47:45;;;;;;;0.73;0.53;;;;;;;12.01;57.46;100440.39;1614988;88;21033;-86
2021/06/02 04:50:32;;;;;;;0.60;0.60;;;;;;;12.03;57.38;100435.67;1613096;88;21096;-87
2021/06/02 04:53:36;;;;;;;3.75;0.93;;;;;;;12.08;57.10;100444.45;1610954;88;22295;-88
2021/06/02 04:56:30;;;;;;;1.53;0.60;;;;;;;12.10;56.47;100441.08;1629435;85;21093;-86
2021/06/02 04:59:28;;;;;;;2.43;0.43;;;;;;;12.13;56.36;100436.69;1658288;85;21368;-85
2021/06/02 05:02:39;;;;;;;1.67;0.50;;;;;;;12.19;55.93;100442.58;1631269;85;21645;-84
2021/06/02 05:05:23;;;;;;;2.50;0.63;;;;;;;12.22;55.65;100442.19;1598042;88;21167;-85
2021/06/02 05:08:42;;;;;;;6.40;0.50;;;;;;;12.30;55.51;100444.37;1600978;88;21066;-76
2021/06/02 05:11:50;;;;;;;2.67;0.40;;;;;;;12.36;55.45;100444.94;1581506;86;21051;-81
2021/06/02 05:15:01;;;;;;;5.03;0.70;;;;;;;12.43;55.25;100441.28;1688202;84;21061;-79
2021/06/02 05:18:08;;;;;;;2.00;0.50;;;;;;;12.57;54.92;100444.01;1694079;83;21097;-78
2021/06/02 05:24:11;;;;;;;0.60;0.50;;;;;;;12.75;54.46;100443.45;1702219;82;21042;-76
2021/06/02 05:27:19;;;;;;;1.60;0.60;;;;;;;12.83;54.01;100437.95;1699890;83;21128;-77
2021/06/02 05:30:25;;;;;;;2.87;0.78;;;;;;;12.88;54.05;100440.82;1695044;83;21018;-77
2021/06/02 05:33:20;;;;;;;3.20;0.80;;;;;;;12.93;53.77;100452.27;1658132;85;21566;-78
2021/06/02 05:36:33;;;;;;;4.08;0.60;;;;;;;12.94;53.65;100447.22;1685260;84;21590;-76
2021/06/02 05:39:34;;;;;;;4.70;0.90;;;;;;;12.96;53.82;100454.03;1695868;83;21002;-87
2021/06/02 05:42:14;;;;;;;4.37;0.35;;;;;;;12.97;54.39;100451.66;1703817;83;21076;-86
2021/06/02 05:45:18;;;;;;;1.25;0.95;;;;;;;12.98;53.59;100432.44;1703415;83;21113;-83
2021/06/02 05:47:57;;;;;;;4.30;0.62;;;;;;;12.91;54.26;100440.43;1701813;83;21045;-78
2021/06/02 05:51:16;;;;;;;5.70;1.47;;;;;;;12.90;54.97;100444.12;1699376;83;21607;-83
2021/06/02 05:54:14;;;;;;;1.25;0.65;;;;;;;12.91;54.65;100443.63;1647538;86;21087;-82
2021/06/02 05:57:13;;;;;;;1.10;0.90;;;;;;;12.91;55.80;100459.16;1693322;84;21053;-84
2021/06/02 06:00:18;;;;;;;1.72;1.02;;;;;;;12.86;55.69;100454.91;1702494;83;21010;-87
2021/06/02 06:03:04;;;;;;;1.85;0.93;;;;;;;12.76;56.75;100459.30;1703664;83;20994;-81
2021/06/02 06:05:48;;;;;;;2.77;0.80;;;;;;;12.66;57.87;100454.86;1706024;83;21089;-83
2021/06/02 06:08:42;;;;;;;3.70;0.80;;;;;;;12.58;57.69;100461.20;1698144;83;21101;-86
2021/06/02 06:11:47;;;;;;;3.13;0.93;;;;;;;12.44;59.67;100465.62;1647054;83;21109;-86
2021/06/02 06:14:37;;;;;;;2.23;0.77;;;;;;;12.31;60.24;100464.22;1698732;84;21537;-83
2021/06/02 06:17:59;;;;;;;3.00;0.87;;;;;;;12.31;59.24;100470.91;1696365;84;21045;-84
2021/06/02 06:20:40;;;;;;;2.00;1.07;;;;;;;12.38;59.07;100471.77;1625756;87;21098;-85
2021/06/02 06:23:33;;;;;;;0.90;0.50;;;;;;;12.39;59.10;100462.72;1613467;87;21052;-82
2021/06/02 06:26:15;;;;;;;4.43;1.00;;;;;;;12.45;58.73;100459.28;1606756;88;21132;-95
2021/06/02 06:29:29;;;;;;;1.20;0.60;;;;;;;12.51;57.86;100462.16;1695249;83;21117;-84
2021/06/02 06:31:58;;;;;;;1.57;0.60;;;;;;;12.60;58.91;100448.94;1693946;84;21693;-87
2021/06/02 06:34:30;;;;;;;1.92;0.45;;;;;;;12.73;57.66;100456.20;1676829;83;21603;-86
2021/06/02 06:37:00;;;;;;;7.13;1.20;;;;;;;12.84;56.54;100449.76;1694915;83;21663;-88
2021/06/02 06:40:09;;;;;;;3.23;0.67;;;;;;;13.01;56.58;100444.05;1639244;87;21164;-85
2021/06/02 06:42:42;;;;;;;2.70;0.50;;;;;;;12.39;56.49;100314.88;1628438;87;21158;-84
2021/06/02 06:45:20;;;;;;;0.72;0.60;;;;;;;13.47;55.34;100450.55;1693942;82;21050;-83
2021/06/02 06:47:48;;;;;;;1.37;0.40;;;;;;;13.68;54.38;100458.41;1670222;85;21078;-90
2021/06/02 06:50:17;;;;;;;3.45;0.90;;;;;;;13.88;53.09;100445.02;1684881;83;21157;-89
2021/06/02 06:52:53;;;;;;;3.22;0.72;;;;;;;13.98;53.78;100455.31;1693203;84;21303;-89
2021/06/02 06:55:22;;;;;;;2.37;0.62;;;;;;;14.07;52.57;100442.00;1697178;82;21054;-90
2021/06/02 06:57:50;;;;;;;4.45;0.60;;;;;;;14.12;51.88;100448.06;1694576;83;21070;-89
2021/06/02 07:00:18;;;;;;;2.65;0.93;;;;;;;14.15;51.82;100467.77;1682700;83;21583;-90
2021/06/02 07:02:45;;;;;;;3.58;0.40;;;;;;;14.18;52.46;100437.34;1652800;86;21595;-90
2021/06/02 07:05:14;;;;;;;2.10;0.88;;;;;;;14.26;52.77;100439.47;1655806;85;21040;-90
2021/06/02 07:07:44;;;;;;;2.70;0.40;;;;;;;14.30;51.85;100447.42;1655569;86;21040;-90
2021/06/02 07:10:13;;;;;;;1.85;0.65;;;;;;;14.32;52.00;100436.78;1654320;85;21131;-89
2021/06/02 07:12:47;;;;;;;7.37;0.30;;;;;;;14.30;51.87;100426.79;1650280;84;21039;-91
2021/06/02 07:15:14;;;;;;;2.33;0.47;;;;;;;14.30;51.56;100431.34;1649608;86;20994;-89
2021/06/02 07:17:45;;;;;;;1.90;0.30;;;;;;;14.29;50.67;100418.42;1644039;85;21069;-92
2021/06/02 07:20:22;;;;;;;1.10;0.40;;;;;;;14.31;50.81;100415.54;1647564;87;21116;-92
2021/06/02 07:22:51;;;;;;;1.20;0.88;;;;;;;14.32;50.69;100417.20;1648072;84;21086;-91
2021/06/02 07:25:23;;;;;;;2.40;0.60;;;;;;;14.38;50.88;100435.94;1662075;85;21104;-89
2021/06/02 07:27:50;;;;;;;1.62;1.12;;;;;;;14.45;51.32;100441.78;1666314;86;21027;-92
2021/06/02 07:30:19;;;;;;;1.75;0.80;;;;;;;14.49;51.43;100439.83;1665906;85;21014;-90
2021/06/02 07:32:45;;;;;;;2.55;0.80;;;;;;;14.57;51.64;100432.09;1672169;85;21063;-90
2021/06/02 07:35:12;;;;;;;;;;;;;;;14.66;51.71;100440.73;1671759;83;21002;-92
2021/06/02 07:37:39;;;;;;;0.98;0.82;;;;;;;14.71;51.19;100435.53;1636698;87;20114;-92
2021/06/02 07:40:09;;;;;;;5.10;0.60;;;;;;;14.72;50.34;100438.53;1581112;88;21062;-89
2021/06/02 07:42:36;;;;;;;4.92;0.28;;;;;;;14.27;49.12;100394.21;1611132;88;21686;-91
2021/06/02 07:45:06;;;;;;;0.98;0.40;;;;;;;14.69;48.77;100514.92;1603209;86;21151;-91
2021/06/02 07:47:34;;;;;;;0.40;0.10;;;;;;;14.64;49.34;100473.13;1602655;88;21185;-90
2021/06/02 07:50:00;;;;;;;2.42;0.30;;;;;;;14.55;49.54;100457.75;1607732;88;21853;-90
2021/06/02 07:52:28;;;;;;;2.90;0.30;;;;;;;14.55;49.10;100486.44;1621795;87;21073;-92
2021/06/02 07:54:55;;;;;;;6.42;0.62;;;;;;;14.51;49.59;100455.72;1605575;84;21102;-93
2021/06/02 07:57:23;;;;;;;0.93;0.20;;;;;;;14.52;49.75;100472.95;1613189;84;21040;-92
2021/06/02 07:59:50;;;;;;;1.17;0.30;;;;;;;14.56;49.35;100462.59;1599561;87;21283;-92
2021/06/02 08:02:18;;;;;;;1.85;0.30;;;;;;;14.62;49.45;100470.34;1657261;85;21026;-92
2021/06/02 08:04:44;;;;;;;3.30;0.30;;;;;;;13.77;49.07;100341.98;1647669;85;21171;-93
2021/06/02 08:07:12;;;;;;;1.67;0.33;;;;;;;14.68;49.59;100474.87;1636274;87;21701;-91
2021/06/02 08:09:40;;;;;;;4.40;0.40;;;;;;;14.72;49.34;100449.27;1642522;86;21400;-91
2021/06/02 08:12:10;;;;;;;3.52;0.30;;;;;;;14.74;48.53;100460.61;1640844;85;21315;-90
2021/06/02 08:14:39;;;;;;;2.58;0.23;;;;;;;14.69;48.56;100479.19;1641924;86;21074;-91
2021/06/02 08:17:06;;;;;;;2.52;0.40;;;;;;;14.65;48.34;100507.48;1641599;86;21084;-90
2021/06/02 08:19:34;;;;;;;2.00;0.40;;;;;;;14.61;48.91;100454.77;1645459;85;21002;-88
2021/06/02 08:22:01;;;;;;;3.70;0.42;;;;;;;14.60;49.50;100451.27;1643524;86;21140;-91
2021/06/02 08:24:37;;;;;;;2.40;0.25;;;;;;;14.62;48.93;100474.36;1641540;84;21093;-92
2021/06/02 08:27:04;;;;;;;3.35;0.98;;;;;;;14.65;49.20;100475.29;1641717;86;21045;-90
2021/06/02 08:29:34;;;;;;;2.87;0.40;;;;;;;14.71;48.77;100463.70;1645611;85;21153;-89
2021/06/02 08:32:04;;;;;;;3.92;0.33;;;;;;;14.80;48.86;100465.11;1645078;86;21088;-93
2021/06/02 08:34:30;;;;;;;4.50;0.37;;;;;;;14.91;48.54;100459.60;1650108;85;21077;-92
2021/06/02 08:36:56;;;;;;;3.92;0.30;;;;;;;14.96;48.20;100451.22;1652044;85;21052;-91
2021/06/02 08:39:23;;;;;;;2.62;0.28;;;;;;;14.96;48.15;100459.80;1617566;87;21122;-91
2021/06/02 08:41:52;;;;;;;1.98;0.30;;;;;;;14.99;47.81;100449.45;1642329;86;21694;-92
2021/06/02 08:44:21;;;;;;;0.82;0.40;;;;;;;15.02;47.65;100493.01;1641404;85;21093;-92
2021/06/02 08:46:49;;;;;;;3.25;0.20;;;;;;;14.98;47.84;100475.98;1630078;86;21077;-91
2021/06/02 08:49:18;;;;;;;2.47;0.68;;;;;;;14.94;48.29;100486.84;1642231;86;21093;-91
2021/06/02 08:51:45;;;;;;;1.80;0.50;;;;;;;14.95;48.06;100481.77;1643380;86;21135;-91
2021/06/02 08:54:12;;;;;;;2.80;0.70;;;;;;;14.97;48.03;100511.92;1642371;86;21073;-91
2021/06/02 08:56:44;;;;;;;2.10;0.30;;;;;;;14.98;48.03;100506.03;1644749;84;21137;-91
2021/06/02 08:59:11;;;;;;;4.42;0.95;;;;;;;14.98;47.86;100501.48;1644357;86;21093;-88
2021/06/02 09:01:38;;;;;;;2.37;0.50;;;;;;;14.96;48.50;100487.98;1639686;86;21104;-91
2021/06/02 09:04:10;;;;;;;3.27;0.45;;;;;;;14.97;48.44;100500.34;1640801;86;21049;-90
2021/06/02 09:06:44;;;;;;;5.58;0.50;;;;;;;14.97;48.20;100511.92;1644313;86;21054;-90
2021/06/02 09:09:13;;;;;;;2.05;0.30;;;;;;;14.94;48.39;100487.37;1636066;86;21076;-90
2021/06/02 09:11:55;;;;;;;3.37;0.53;;;;;;;14.95;48.27;100489.81;1638384;86;21032;-91
2021/06/02 09:14:37;;;;;;;0.88;0.40;;;;;;;14.91;47.63;100557.04;1640583;86;21029;-91
2021/06/02 09:17:09;;;;;;;1.17;0.53;;;;;;;14.87;47.84;100495.44;1623498;87;21213;-91
2021/06/02 09:19:46;;;;;;;2.67;0.40;;;;;;;14.85;48.30;100477.38;1645502;83;21014;-90
2021/06/02 09:22:19;;;;;;;;;;;;;;;14.85;49.89;100470.67;1650567;85;21033;-91
2021/06/02 09:25:02;;;;;;;1.32;0.40;;;;;;;14.86;50.48;100475.02;1640365;86;20527;-89
2021/06/02 09:27:49;;;;;;;0.60;0.20;;;;;;;14.79;49.73;100486.30;1635865;86;21125;-91
2021/06/02 09:30:23;;;;;;;1.52;0.47;;;;;;;14.79;49.50;100471.53;1641544;86;21108;-91
2021/06/02 09:32:57;;;;;;;2.40;0.45;;;;;;;14.76;50.08;100472.77;1640070;86;21077;-91
2021/06/02 09:35:38;;;;;;;5.95;0.37;;;;;;;14.59;49.59;100432.17;1651683;85;20986;-89
2021/06/02 09:38:08;;;;;;;0.75;0.57;;;;;;;14.83;49.70;100473.27;1651533;85;21201;-90
2021/06/02 09:40:38;;;;;;;1.10;0.30;;;;;;;14.89;49.69;100467.05;1632022;86;21693;-91
2021/06/02 09:43:06;;;;;;;1.25;0.30;;;;;;;14.93;49.75;100473.63;1646513;85;21006;-90
2021/06/02 09:45:34;;;;;;;1.35;0.50;;;;;;;14.96;49.84;100461.95;1648725;85;21029;-87
2021/06/02 09:48:06;;;;;;;0.93;0.40;;;;;;;15.04;49.58;100472.14;1649019;85;21121;-91
2021/06/02 09:50:38;;;;;;;5.28;0.50;;;;;;;15.10;49.07;100467.25;1652261;85;21079;-90
2021/06/02 09:53:08;;;;;;;5.45;0.75;;;;;;;15.18;49.02;100475.88;1649940;85;21038;-91
2021/06/02 09:55:41;;;;;;;1.87;0.50;;;;;;;15.24;48.91;100470.17;1650221;85;21033;-91
2021/06/02 09:58:15;;;;;;;1.05;0.25;;;;;;;15.29;48.35;100465.48;1649551;85;21132;-91
2021/06/02 10:00:55;;;;;;;3.87;0.30;;;;;;;15.33;48.33;100470.22;1641019;85;21093;-92
2021/06/02 10:03:27;;;;;;;1.35;0.47;;;;;;;15.40;48.15;100470.69;1637260;85;21452;-89
2021/06/02 10:05:54;;;;;;;1.45;0.60;;;;;;;15.44;47.45;100467.87;1650190;85;21161;-92
2021/06/02 10:08:33;;;;;;;1.15;0.40;;;;;;;15.48;47.51;100473.10;1627162;87;21621;-91
2021/06/02 10:11:18;;;;;;;6.80;1.00;;;;;;;15.57;47.63;100472.62;1691083;83;21140;-90
2021/06/02 10:13:51;;;;;;;8.73;0.60;;;;;;;15.65;47.84;100469.36;1690029;83;21076;-90
2021/06/02 10:16:38;;;;;;;4.20;0.45;;;;;;;15.73;47.37;100481.20;1683643;83;22117;-89
2021/06/02 10:19:05;;;;;;;4.33;0.20;;;;;;;15.78;46.99;100469.29;1688566;83;21099;-84
2021/06/02 10:21:50;;;;;;;2.15;0.20;;;;;;;15.84;46.01;100484.56;1686308;83;22141;-86
2021/06/02 10:24:17;;;;;;;12.90;0.30;;;;;;;15.91;45.58;100472.39;1688255;83;21053;-87
2021/06/02 10:26:46;;;;;;;1.45;0.40;;;;;;;15.99;45.77;100476.13;1686973;83;21040;-91
2021/06/02 10:29:16;;;;;;;3.75;0.40;;;;;;;16.05;46.20;100479.80;1624718;87;21067;-91
2021/06/02 10:31:42;;;;;;;2.62;0.53;;;;;;;16.10;45.62;100494.23;1690500;83;21017;-89
2021/06/02 10:34:11;;;;;;;0.98;0.20;;;;;;;16.12;45.38;100502.92;1692207;83;21049;-90
2021/06/02 10:36:38;;;;;;;2.45;0.30;;;;;;;16.12;45.55;100496.20;1680381;83;21068;-87
2021/06/02 10:39:07;;;;;;;4.03;0.20;;;;;;;16.15;45.57;100489.55;1693126;81;21037;-90
2021/06/02 10:41:52;;;;;;;4.12;0.37;;;;;;;16.12;45.89;100492.17;1631451;84;21106;-88
2021/06/02 10:44:27;;;;;;;2.50;0.20;;;;;;;16.12;45.21;100491.33;1686860;82;21045;-91
2021/06/02 10:46:54;;;;;;;4.67;0.50;;;;;;;16.10;46.21;100490.73;1666889;85;21137;-89
2021/06/02 10:49:29;;;;;;;1.55;0.47;;;;;;;16.13;44.76;100484.39;1665617;85;21643;-92
2021/06/02 10:51:57;;;;;;;5.12;0.20;;;;;;;16.13;45.09;100471.47;1661873;85;21238;-89
2021/06/02 10:54:40;;;;;;;4.60;0.30;;;;;;;16.18;45.18;100493.66;1645685;86;20975;-90
2021/06/02 10:57:10;;;;;;;2.50;0.37;;;;;;;16.20;44.82;100487.53;1663237;83;21102;-89
2021/06/02 10:59:45;;;;;;;1.75;0.20;;;;;;;16.20;45.06;100487.53;1665768;85;21111;-91
2021/06/02 11:02:18;;;;;;;1.30;0.28;;;;;;;16.19;45.49;100488.59;1660046;84;21030;-88
2021/06/02 11:05:00;;;;;;;5.97;0.70;;;;;;;16.15;45.78;100482.30;1666589;85;21707;-90
2021/06/02 11:07:31;;;;;;;0.60;0.20;;;;;;;16.18;45.70;100501.72;1664096;85;21095;-91
2021/06/02 11:10:09;;;;;;;3.27;0.35;;;;;;;16.17;45.87;100492.02;1666575;85;21098;-90
2021/06/02 11:12:52;;;;;;;;;;;;;;;16.18;45.44;100498.53;1661899;84;21194;-90
2021/06/02 11:15:34;;;;;;;3.47;0.35;;;;;;;16.21;45.60;100494.03;1652015;86;20157;-89
2021/06/02 11:18:16;;;;;;;3.30;0.30;;;;;;;16.20;45.45;100505.85;1656555;85;21339;-90
2021/06/02 11:20:58;;;;;;;3.58;0.55;;;;;;;16.28;44.94;100489.95;1658587;85;21087;-89
2021/06/02 11:23:38;;;;;;;4.17;0.20;;;;;;;16.32;44.93;100497.34;1656301;84;21488;-90
2021/06/02 11:26:26;;;;;;;2.35;0.10;;;;;;;16.35;44.79;100497.44;1654876;85;21537;-89
2021/06/02 11:28:55;;;;;;;1.12;0.13;;;;;;;16.41;44.62;100500.57;1655463;85;21026;-89
2021/06/02 11:31:30;;;;;;;1.67;0.53;;;;;;;16.46;44.27;100503.42;1658628;85;21030;-89
2021/06/02 11:34:27;;;;;;;3.12;0.60;;;;;;;16.53;44.24;100485.84;1662890;84;21061;-91
2021/06/02 11:37:06;;;;;;;0.73;0.20;;;;;;;16.60;44.27;100491.17;1671217;84;21568;-89
2021/06/02 11:39:37;;;;;;;7.92;0.40;;;;;;;16.62;43.55;100468.89;1677057;84;21053;-92
2021/06/02 11:42:09;;;;;;;2.08;0.25;;;;;;;16.66;43.48;100502.38;1676382;84;21007;-91
2021/06/02 11:44:39;;;;;;;3.02;0.30;;;;;;;16.74;43.43;100504.25;1664223;82;21022;-89
2021/06/02 11:47:09;;;;;;;0.53;0.35;;;;;;;16.80;42.74;100495.80;1676298;84;21063;-90
2021/06/02 11:49:37;;;;;;;3.47;0.20;;;;;;;16.83;42.79;100512.86;1670887;84;21165;-90
2021/06/02 11:52:12;;;;;;;3.85;0.50;;;;;;;16.89;42.97;100504.41;1670382;84;21004;-88
2021/06/02 11:54:56;;;;;;;1.17;0.30;;;;;;;16.95;43.45;100502.68;1670049;84;21131;-90
2021/06/02 11:57:30;;;;;;;3.87;0.30;;;;;;;17.03;43.07;100488.92;1657693;85;20994;-89
2021/06/02 12:00:01;;;;;;;2.10;0.30;;;;;;;17.10;42.27;100479.70;1669706;84;21021;-84
2021/06/02 12:02:29;;;;;;;2.42;0.20;;;;;;;17.18;42.52;100487.98;1674634;82;20999;-89
2021/06/02 12:05:20;;;;;;;4.05;0.20;;;;;;;17.26;42.53;100485.50;1675137;82;20980;-87
2021/06/02 12:08:00;;;;;;;2.60;0.72;;;;;;;17.13;42.66;100452.83;1669269;82;21021;-91
2021/06/02 12:10:44;;;;;;;1.60;0.20;;;;;;;17.19;41.91;100500.39;1669383;84;21087;-90
2021/06/02 12:13:29;;;;;;;4.28;0.42;;;;;;;17.44;41.85;100499.42;1668935;84;21023;-89
2021/06/02 12:16:09;;;;;;;7.05;0.30;;;;;;;17.43;41.50;100518.81;1670651;85;21111;-91
2021/06/02 12:18:45;;;;;;;1.22;0.20;;;;;;;17.46;41.20;100490.08;1670708;85;22229;-90
2021/06/02 12:24:19;;;;;;;7.17;0.57;;;;;;;17.60;41.60;100487.17;1795902;78;22743;-90
2021/06/02 12:26:48;;;;;;;1.70;0.33;;;;;;;17.62;41.32;100491.27;1730696;82;21063;-89
2021/06/02 12:29:18;;;;;;;2.00;0.23;;;;;;;17.73;41.20;100473.48;1702670;84;21590;-90
2021/06/02 12:31:46;;;;;;;;;;;;;;;17.73;41.20;100473.48;1704633;83;21064;-89